Wednesday, August 15, 2018, 11:59 PM EDT
Back to Local

KHZY, Ashtabula County Airport

Location: Jefferson, OH, United States Lat: 41.783
Local Time: 11:59 PM EDT ( 3:59 GMT) Lon: -80.7
Time Zone: US/Eastern Elev: 925 ft

Show me the last for .
Show Coded

Time T Td Feel RH Dir Speed Gust Alt SLP Vis Weather Sky Remarks
2018-08-15 22:53 70 70 - 100 - Calm - 30.05 30.03 8 CLR None
2018-08-15 21:53 71 71 76 100 110° 3 - 30.05 30.03 9 CLR None
2018-08-15 20:53 72 70 76 93 - Calm - 30.04 30.03 10 CLR None
2018-08-15 19:53 77 71 81 81 - Calm - 30.04 30.02 10 CLR 6-hr Min Temp (8pm): 77.0°F
6-hr Max Temp (8pm): 84.0°F
2018-08-15 18:53 81 68 84 64 260° 5 - 30.03 30.01 10 CLR None
2018-08-15 17:53 82 67 85 60 290° 6 - 30.04 30.01 10 CLR None
2018-08-15 16:53 83 68 86 60 280° 7 - 30.04 30.02 10 CLR None
2018-08-15 15:53 83 68 86 60 300° 5 - 30.05 30.03 10 CLR None
2018-08-15 14:53 83 69 87 63 Variable 6 - 30.06 30.04 10 FEW040 None
2018-08-15 13:53 83 67 86 58 300° 10 - 30.06 30.03 10 CLR 6-hr Min Temp (2pm): 66.9°F
6-hr Max Temp (2pm): 82.9°F
2018-08-15 12:53 81 68 84 64 290° 9 - 30.06 30.03 10 CLR None
2018-08-15 11:53 82 70 86 67 300° 9 - 30.05 30.03 10 CLR None
2018-08-15 10:53 80 71 84 74 290° 9 - 30.05 30.03 9 FEW019 None
2018-08-15 09:53 76 73 80 90 270° 9 - 30.04 30.02 8 CLR None
2018-08-15 08:53 72 70 76 93 250° 7 - 30.03 30.01 7 CLR None
2018-08-15 07:53 67 67 - 100 - Calm - 30.03 30.01 6 BR CLR 6-hr Min Temp (8am): 64.0°F
6-hr Max Temp (8am): 66.9°F
2018-08-15 06:53 64 64 - 100 - Calm - 30.01 29.99 5 BR CLR None
2018-08-15 05:53 65 64 - 96 - Calm - 30.00 29.98 8 CLR None
2018-08-15 04:53 64 64 - 100 - Calm - 29.99 29.97 8 CLR None
2018-08-15 03:53 65 64 - 96 200° 3 - 29.98 29.96 10 CLR None
2018-08-15 02:53 66 64 - 93 200° 3 - 29.98 29.96 10 CLR None
2018-08-15 01:53 66 63 - 89 - Calm - 29.98 29.96 10 CLR 6-hr Min Temp (2am): 64.0°F
6-hr Max Temp (2am): 75.9°F
2018-08-15 00:53 64 63 - 96 - Calm - 29.99 29.97 10 CLR 24-hr Min Temp (1am): 64.0°F
24-hr Max Temp (1am): 82.9°F

Support USWX by starting your Amazon purchase here.